Time,TemperatureF,DewpointF,PressureIn,WindDirection,WindDirectionDegrees,WindSpeedMPH,WindSpeedGustMPH,Humidity,HourlyPrecipIn,Conditions,Clouds,dailyrainin,SoftwareType,DateUTC
2013-08-14 00:01:00,65.0,42.0,-100.00,NE,54,5.0,6.0,42,0.00,,,0.00,,2013-08-14 06:01:00,
2013-08-14 00:21:00,62.0,42.0,-100.00,North,1,6.0,7.0,48,0.00,,,0.00,,2013-08-14 06:21:00,
2013-08-14 00:31:00,62.0,42.0,-100.00,North,1,6.0,7.0,48,0.00,,,0.00,,2013-08-14 06:31:00,
2013-08-14 01:52:00,57.0,42.0,-100.00,NNE,14,8.0,9.0,58,0.00,,,0.00,,2013-08-14 07:52:00,
2013-08-14 02:01:00,57.0,42.0,-100.00,NNE,14,8.0,9.0,58,0.00,,,0.00,,2013-08-14 08:01:00,
2013-08-14 02:21:00,57.0,42.0,-100.00,North,10,3.0,4.0,58,0.00,,,0.00,,2013-08-14 08:21:00,
2013-08-14 02:31:00,57.0,42.0,-100.00,North,10,3.0,4.0,58,0.00,,,0.00,,2013-08-14 08:31:00,
2013-08-14 02:52:00,53.0,42.0,-100.00,NNW,343,6.0,6.0,65,0.00,,,0.00,,2013-08-14 08:52:00,
2013-08-14 03:02:00,53.0,42.0,-100.00,NNW,343,6.0,6.0,65,0.00,,,0.00,,2013-08-14 09:02:00,
2013-08-14 03:21:00,56.0,40.0,-100.00,NNE,13,7.0,9.0,55,0.00,,,0.00,,2013-08-14 09:21:00,
2013-08-14 03:33:00,56.0,40.0,-100.00,NNE,13,7.0,9.0,55,0.00,,,0.00,,2013-08-14 09:33:00,
2013-08-14 03:43:00,56.0,40.0,-100.00,NNE,13,7.0,9.0,55,0.00,,,0.00,,2013-08-14 09:43:00,
2013-08-14 03:53:00,55.0,40.0,-100.00,NNW,346,8.0,8.0,57,0.00,,,0.00,,2013-08-14 09:53:00,
2013-08-14 04:03:00,55.0,40.0,-100.00,NNW,346,8.0,8.0,57,0.00,,,0.00,,2013-08-14 10:03:00,
2013-08-14 04:11:00,55.0,40.0,-100.00,NNW,346,8.0,8.0,57,0.00,,,0.00,,2013-08-14 10:11:00,
2013-08-14 04:42:00,54.0,39.0,-100.00,North,354,8.0,9.0,56,0.00,,,0.00,,2013-08-14 10:42:00,
2013-08-14 05:11:00,54.0,40.0,-100.00,North,3,6.0,7.0,58,0.00,,,0.00,,2013-08-14 11:11:00,
2013-08-14 05:42:00,53.0,40.0,-100.00,North,11,8.0,9.0,61,0.00,,,0.00,,2013-08-14 11:42:00,
2013-08-14 06:11:00,52.0,40.0,-100.00,North,357,6.0,7.0,62,0.00,,,0.00,,2013-08-14 12:11:00,
2013-08-14 06:42:00,52.0,39.0,-100.00,North,357,6.0,7.0,61,0.00,,,0.00,,2013-08-14 12:42:00,
2013-08-14 06:52:00,52.0,39.0,-100.00,North,357,6.0,7.0,61,0.00,,,0.00,,2013-08-14 12:52:00,
2013-08-14 07:11:00,51.0,39.0,-100.00,North,359,6.0,7.0,63,0.00,,,0.00,,2013-08-14 13:11:00,
2013-08-14 07:42:00,52.0,39.0,-100.00,North,360,6.0,7.0,62,0.00,,,0.00,,2013-08-14 13:42:00,
2013-08-14 08:11:00,53.0,42.0,-100.00,North,4,6.0,8.0,65,0.00,,,0.00,,2013-08-14 14:11:00,
2013-08-14 08:42:00,59.0,43.0,-100.00,NNE,16,8.0,10.0,55,0.00,,,0.00,,2013-08-14 14:42:00,
2013-08-14 09:43:00,66.0,41.0,-100.00,NNE,18,7.0,9.0,41,0.00,,,0.00,,2013-08-14 15:43:00,
2013-08-14 10:13:00,69.0,42.0,-100.00,NE,34,6.0,10.0,37,0.00,,,0.00,,2013-08-14 16:13:00,
2013-08-14 10:43:00,72.0,42.0,-100.00,NNE,20,7.0,10.0,34,0.00,,,0.00,,2013-08-14 16:43:00,
2013-08-14 11:20:00,74.0,43.0,-100.00,NNE,21,9.0,12.0,33,0.00,,,0.00,,2013-08-14 17:20:00,
2013-08-14 11:44:00,78.0,40.0,-100.00,NE,37,8.0,10.0,26,0.00,,,0.00,,2013-08-14 17:44:00,
2013-08-14 12:00:00,-999.0,-99.9,-100.00,ENE,71,7.0,9.0,-999,-99.99,,,-99.99,,2013-08-14 18:00:00,
2013-08-14 12:24:00,80.0,-99.9,-100.00,NE,35,9.0,12.0,25,0.00,,,0.00,,2013-08-14 18:24:00,
2013-08-14 12:29:00,80.0,41.0,-100.00,NE,35,9.0,12.0,25,0.00,,,0.00,,2013-08-14 18:29:00,
2013-08-14 13:13:00,85.0,38.0,-100.00,NNE,27,5.0,6.0,19,0.00,,,0.00,,2013-08-14 19:13:00,
2013-08-14 13:42:00,84.0,37.0,-100.00,ESE,106,5.0,8.0,19,0.00,,,0.00,,2013-08-14 19:42:00,
2013-08-14 14:12:00,86.0,36.0,-100.00,East,93,4.0,7.0,17,0.00,,,0.00,,2013-08-14 20:12:00,
2013-08-14 14:49:00,87.0,33.0,-100.00,East,85,4.0,7.0,15,0.00,,,0.00,,2013-08-14 20:49:00,
2013-08-14 15:13:00,90.0,33.0,-100.00,South,178,2.0,6.0,13,0.00,,,0.00,,2013-08-14 21:13:00,
2013-08-14 15:45:00,89.0,32.0,-100.00,SW,222,5.0,7.0,13,0.00,,,0.00,,2013-08-14 21:45:00,
2013-08-14 16:13:00,90.0,30.0,-100.00,SSW,196,5.0,9.0,12,0.00,,,0.00,,2013-08-14 22:13:00,
2013-08-14 16:44:00,91.0,29.0,-100.00,SSE,154,1.0,4.0,11,0.00,,,0.00,,2013-08-14 22:44:00,
2013-08-14 17:13:00,91.0,30.0,-100.00,WSW,244,3.0,6.0,11,0.00,,,0.00,,2013-08-14 23:13:00,
2013-08-14 17:24:00,91.0,30.0,-100.00,WSW,244,3.0,6.0,11,0.00,,,0.00,,2013-08-14 23:24:00,
2013-08-14 17:46:00,89.0,31.0,-100.00,SE,144,8.0,11.0,12,0.00,,,0.00,,2013-08-14 23:46:00,
2013-08-14 18:12:00,89.0,37.0,-100.00,East,95,9.0,12.0,16,0.00,,,0.00,,2013-08-15 00:12:00,
2013-08-14 18:43:00,90.0,29.0,-100.00,SE,140,7.0,13.0,11,0.00,,,0.00,,2013-08-15 00:43:00,
2013-08-14 19:16:00,90.0,29.0,-100.00,West,272,9.0,11.0,11,0.00,,,0.00,,2013-08-15 01:16:00,
2013-08-14 19:22:00,90.0,29.0,-100.00,West,272,9.0,11.0,11,0.00,,,0.00,,2013-08-15 01:22:00,
2013-08-14 19:42:00,89.0,29.0,-100.00,West,270,8.0,10.0,11,0.00,,,0.00,,2013-08-15 01:42:00,
2013-08-14 19:52:00,89.0,29.0,-100.00,West,270,8.0,10.0,11,0.00,,,0.00,,2013-08-15 01:52:00,
2013-08-14 20:11:00,88.0,25.0,-100.00,West,265,9.0,11.0,10,0.00,,,0.00,,2013-08-15 02:11:00,
2013-08-14 21:11:00,80.0,28.0,-100.00,WSW,241,8.0,9.0,15,0.00,,,0.00,,2013-08-15 03:11:00,
2013-08-14 21:43:00,78.0,32.0,-100.00,SW,223,6.0,7.0,19,0.00,,,0.00,,2013-08-15 03:43:00,
2013-08-14 22:12:00,73.0,30.0,-100.00,SW,216,4.0,6.0,20,0.00,,,0.00,,2013-08-15 04:12:00,
2013-08-14 23:42:00,62.0,37.0,-100.00,SE,141,3.0,3.0,39,0.00,,,0.00,,2013-08-15 05:42:00,